Time;durP1;ratioP1;P1;durP2;ratioP2;P2;SDS_P1;SDS_P2;PMS_P1;PMS_P2;Temp;Humidity;BMP_temperature;BMP_pressure;BME280_temperature;BME280_humidity;BME280_pressure;Samples;Min_cycle;Max_cycle;Signal;HPM_P1;HPM_P2
2023/07/09 00:01:05;;;;;;;4.43;3.65;;;22.50;99.90;;;;;;5073409;28;20271;-29
2023/07/09 00:03:31;;;;;;;5.72;4.18;;;22.40;99.90;;;;;;5091897;28;20212;-29
2023/07/09 00:05:57;;;;;;;5.25;4.15;;;22.40;99.90;;;;;;5091459;28;20231;-29
2023/07/09 00:08:29;;;;;;;6.03;4.30;;;22.30;99.90;;;;;;5074950;28;20258;-30
2023/07/09 00:10:56;;;;;;;6.30;4.45;;;22.20;99.90;;;;;;5089582;28;20279;-30
2023/07/09 00:13:23;;;;;;;5.25;4.22;;;22.10;99.90;;;;;;5090975;28;20187;-29
2023/07/09 00:15:50;;;;;;;5.00;4.30;;;22.00;99.90;;;;;;5073793;28;20219;-29
2023/07/09 00:18:17;;;;;;;7.10;4.50;;;22.00;99.90;;;;;;5066874;28;20209;-29
2023/07/09 00:20:43;;;;;;;7.40;4.60;;;22.00;99.90;;;;;;5074685;28;20184;-29
2023/07/09 00:23:13;;;;;;;6.88;4.15;;;22.00;99.90;;;;;;5074764;28;20243;-29
2023/07/09 00:25:44;;;;;;;6.70;4.53;;;21.90;99.90;;;;;;5074513;28;20176;-29
2023/07/09 00:28:17;;;;;;;8.63;4.40;;;21.90;99.90;;;;;;5074256;28;20200;-29
2023/07/09 00:30:44;;;;;;;7.47;4.50;;;21.90;99.90;;;;;;5074054;28;20256;-29
2023/07/09 00:33:20;;;;;;;4.90;4.40;;;21.90;99.90;;;;;;5073862;28;20177;-29
2023/07/09 00:35:48;;;;;;;8.30;4.50;;;21.80;99.90;;;;;;5073805;28;20184;-29
2023/07/09 00:38:17;;;;;;;7.10;4.38;;;21.70;99.90;;;;;;5075008;28;20197;-30
2023/07/09 00:40:56;;;;;;;5.93;4.20;;;21.70;99.90;;;;;;5074124;28;20217;-28
2023/07/09 00:43:22;;;;;;;7.18;4.60;;;21.60;99.90;;;;;;5067496;28;20720;-30
2023/07/09 00:46:11;;;;;;;5.65;4.57;;;21.50;99.90;;;;;;5090574;28;20173;-29
2023/07/09 00:48:41;;;;;;;5.82;3.70;;;21.40;99.90;;;;;;5090729;28;20204;-29
2023/07/09 00:51:13;;;;;;;6.10;4.15;;;21.40;99.90;;;;;;5070974;28;20185;-29
2023/07/09 00:53:45;;;;;;;7.57;4.57;;;21.30;99.90;;;;;;5073084;28;20189;-29
2023/07/09 00:56:15;;;;;;;6.85;4.60;;;21.30;99.90;;;;;;5070519;28;20222;-29
2023/07/09 00:58:47;;;;;;;8.48;4.88;;;21.20;99.90;;;;;;5078185;28;20204;-29
2023/07/09 01:01:18;;;;;;;5.53;4.25;;;21.30;99.90;;;;;;5072834;28;20210;-29
2023/07/09 01:03:56;;;;;;;10.00;4.72;;;21.20;99.90;;;;;;5073134;28;20213;-28
2023/07/09 01:06:32;;;;;;;7.35;4.50;;;21.20;99.90;;;;;;5090197;28;20243;-29
2023/07/09 01:09:00;;;;;;;6.80;4.70;;;21.20;99.90;;;;;;5089652;28;20212;-28
2023/07/09 01:11:27;;;;;;;5.97;4.97;;;21.20;99.90;;;;;;5090358;28;20237;-30
2023/07/09 01:13:56;;;;;;;8.55;4.82;;;21.20;99.90;;;;;;5081238;28;20187;-30
2023/07/09 01:16:26;;;;;;;5.78;4.60;;;21.20;99.90;;;;;;5090175;28;20326;-30
2023/07/09 01:18:52;;;;;;;5.38;4.47;;;21.20;99.90;;;;;;5089417;28;20204;-29
2023/07/09 01:21:18;;;;;;;6.85;4.80;;;21.20;99.90;;;;;;5069264;28;20246;-31
2023/07/09 01:23:47;;;;;;;5.65;4.80;;;21.30;99.90;;;;;;5061752;28;20173;-29
2023/07/09 01:26:16;;;;;;;5.05;4.55;;;21.20;99.90;;;;;;5081544;28;20188;-28
2023/07/09 01:28:43;;;;;;;7.30;4.85;;;21.20;99.90;;;;;;5072933;28;20204;-29
2023/07/09 01:31:11;;;;;;;6.80;5.07;;;21.20;99.90;;;;;;5065203;28;20176;-29
2023/07/09 01:33:39;;;;;;;6.57;4.70;;;21.20;99.90;;;;;;5084773;28;20208;-29
2023/07/09 01:36:07;;;;;;;6.90;5.00;;;21.20;99.90;;;;;;5080287;28;20184;-30
2023/07/09 01:38:33;;;;;;;6.45;4.82;;;21.20;99.90;;;;;;5072468;28;20200;-29
2023/07/09 01:40:59;;;;;;;6.15;4.93;;;21.10;99.90;;;;;;5090050;28;20176;-29
2023/07/09 01:43:27;;;;;;;5.97;5.05;;;21.00;99.90;;;;;;5073579;28;20317;-30
2023/07/09 01:45:57;;;;;;;5.90;4.70;;;21.10;99.90;;;;;;5089468;28;20188;-29
2023/07/09 01:48:24;;;;;;;5.70;5.00;;;21.00;99.90;;;;;;5072722;28;20192;-29
2023/07/09 01:50:51;;;;;;;8.25;4.97;;;21.00;99.90;;;;;;5089494;28;20322;-29
2023/07/09 01:53:23;;;;;;;5.40;4.75;;;20.90;99.90;;;;;;5070957;28;20196;-30
2023/07/09 01:55:50;;;;;;;6.55;5.30;;;20.80;99.90;;;;;;5072748;28;20294;-29
2023/07/09 01:58:16;;;;;;;7.60;5.00;;;20.70;99.90;;;;;;5072695;28;20199;-29
2023/07/09 02:00:44;;;;;;;8.52;5.25;;;20.70;99.90;;;;;;5071234;28;20237;-29
2023/07/09 02:03:10;;;;;;;7.80;5.07;;;20.70;99.90;;;;;;5072608;28;20291;-29
2023/07/09 02:05:37;;;;;;;6.30;4.57;;;20.60;99.90;;;;;;5073126;28;20237;-29
2023/07/09 02:08:04;;;;;;;6.45;4.85;;;20.60;99.90;;;;;;5072383;28;20204;-29
2023/07/09 02:10:30;;;;;;;7.68;4.90;;;20.50;99.90;;;;;;5072336;28;20204;-29
2023/07/09 02:12:56;;;;;;;9.43;4.90;;;20.50;99.90;;;;;;5088145;28;20185;-29
2023/07/09 02:15:22;;;;;;;10.57;5.20;;;20.40;99.90;;;;;;5089852;28;20188;-28
2023/07/09 02:17:49;;;;;;;5.53;4.35;;;20.40;99.90;;;;;;5074657;28;20246;-29
2023/07/09 02:20:15;;;;;;;5.97;4.47;;;20.30;99.90;;;;;;5072727;28;20176;-29
2023/07/09 02:22:41;;;;;;;5.82;5.00;;;20.30;99.90;;;;;;5072711;28;20211;-29
2023/07/09 02:25:08;;;;;;;7.00;5.20;;;20.30;99.90;;;;;;5072703;28;20186;-29
2023/07/09 02:27:35;;;;;;;7.38;5.55;;;20.30;99.90;;;;;;5072725;28;20218;-29
2023/07/09 02:30:02;;;;;;;6.43;5.20;;;20.30;99.90;;;;;;5072185;28;20212;-29
2023/07/09 02:32:28;;;;;;;5.82;5.22;;;20.20;99.90;;;;;;5076510;28;20179;-28
2023/07/09 02:34:55;;;;;;;7.38;5.32;;;20.20;99.90;;;;;;5085029;28;20271;-29
2023/07/09 02:37:24;;;;;;;8.43;5.13;;;20.10;99.90;;;;;;5076073;28;20196;-28
2023/07/09 02:39:50;;;;;;;8.15;5.63;;;20.00;99.90;;;;;;5093353;28;20184;-28
2023/07/09 02:42:19;;;;;;;5.88;5.03;;;20.00;99.90;;;;;;5076687;28;20249;-29
2023/07/09 02:44:46;;;;;;;7.93;5.30;;;20.00;99.90;;;;;;5093161;28;20185;-29
2023/07/09 02:47:13;;;;;;;8.23;4.97;;;20.00;99.90;;;;;;5084710;28;20181;-32
2023/07/09 02:49:40;;;;;;;7.47;4.88;;;19.90;99.90;;;;;;5076227;28;20204;-32
2023/07/09 02:52:06;;;;;;;7.40;5.03;;;19.90;99.90;;;;;;5076269;28;20196;-32
2023/07/09 02:54:32;;;;;;;6.28;4.55;;;19.80;99.90;;;;;;5093013;28;20176;-31
2023/07/09 02:56:58;;;;;;;7.88;4.95;;;19.80;99.90;;;;;;5080691;28;20197;-32
2023/07/09 02:59:26;;;;;;;8.38;5.78;;;19.70;99.90;;;;;;5076137;28;20196;-32
2023/07/09 03:01:52;;;;;;;6.85;4.80;;;19.70;99.90;;;;;;5075863;28;20219;-32
2023/07/09 03:04:20;;;;;;;6.95;5.20;;;19.70;99.90;;;;;;5071824;28;20326;-31
2023/07/09 03:06:46;;;;;;;6.05;4.82;;;19.60;99.90;;;;;;5092820;28;20184;-32
2023/07/09 03:09:12;;;;;;;7.53;5.00;;;19.50;99.90;;;;;;5075483;28;20208;-32
2023/07/09 03:11:38;;;;;;;7.43;5.20;;;19.40;99.90;;;;;;5074514;28;20257;-32
2023/07/09 03:14:04;;;;;;;7.78;5.63;;;19.40;99.90;;;;;;5075697;28;20214;-32
2023/07/09 03:16:33;;;;;;;8.07;5.63;;;19.40;99.90;;;;;;5075795;28;20188;-32
2023/07/09 03:18:59;;;;;;;7.07;5.60;;;19.30;99.90;;;;;;5075042;28;20204;-32
2023/07/09 03:21:27;;;;;;;7.53;5.40;;;19.40;99.90;;;;;;5075874;28;20187;-32
2023/07/09 03:23:54;;;;;;;6.50;5.78;;;19.40;99.90;;;;;;5092684;28;20189;-33
2023/07/09 03:26:21;;;;;;;7.22;5.57;;;19.40;99.90;;;;;;5072319;28;20188;-32
2023/07/09 03:28:47;;;;;;;10.15;6.07;;;19.40;99.90;;;;;;5074338;28;20208;-31
2023/07/09 03:31:13;;;;;;;7.75;5.30;;;19.30;99.90;;;;;;5074542;28;20180;-32
2023/07/09 03:33:39;;;;;;;7.55;6.18;;;19.30;99.90;;;;;;5090288;28;20263;-32
2023/07/09 03:36:05;;;;;;;8.55;5.35;;;19.40;99.90;;;;;;5074770;28;20183;-32
2023/07/09 03:38:31;;;;;;;7.85;5.35;;;19.30;99.90;;;;;;5091349;28;20220;-32
2023/07/09 03:40:57;;;;;;;9.50;5.88;;;19.30;99.90;;;;;;5074588;28;20200;-31
2023/07/09 03:43:23;;;;;;;8.60;5.53;;;19.30;99.90;;;;;;5093139;28;20241;-32
2023/07/09 03:45:50;;;;;;;11.57;5.78;;;19.20;99.90;;;;;;5092120;28;20180;-32
2023/07/09 03:48:18;;;;;;;6.85;6.05;;;19.20;99.90;;;;;;5093750;28;20295;-32
2023/07/09 03:50:46;;;;;;;5.45;4.93;;;19.20;99.90;;;;;;5091885;28;20337;-32
2023/07/09 03:53:12;;;;;;;7.88;5.63;;;19.20;99.90;;;;;;5075327;28;20264;-32
2023/07/09 03:55:38;;;;;;;8.40;5.75;;;19.20;99.90;;;;;;5074865;28;20185;-31
2023/07/09 03:58:05;;;;;;;6.80;5.53;;;19.20;99.90;;;;;;5091752;28;20211;-31
2023/07/09 04:00:31;;;;;;;7.22;6.10;;;19.30;99.90;;;;;;5074686;28;20276;-29
2023/07/09 04:02:57;;;;;;;9.13;5.72;;;19.20;99.90;;;;;;5091333;28;20237;-32
2023/07/09 04:05:24;;;;;;;7.85;5.90;;;19.20;99.90;;;;;;5074426;28;20188;-31
2023/07/09 04:07:50;;;;;;;6.82;5.40;;;19.30;99.90;;;;;;5090845;28;20234;-32
2023/07/09 04:10:17;;;;;;;9.23;6.75;;;19.20;99.90;;;;;;5074352;28;20212;-32
2023/07/09 04:12:43;;;;;;;7.65;5.57;;;19.20;99.90;;;;;;5072821;28;20181;-32
2023/07/09 04:15:12;;;;;;;7.45;5.63;;;19.10;99.90;;;;;;5091626;28;20192;-31
2023/07/09 04:17:39;;;;;;;9.23;5.60;;;19.10;99.90;;;;;;5074351;28;20204;-32
2023/07/09 04:20:07;;;;;;;6.57;5.40;;;19.10;99.90;;;;;;5090688;28;20180;-32
2023/07/09 04:22:34;;;;;;;9.23;5.63;;;19.10;99.90;;;;;;5074471;28;20184;-32
2023/07/09 04:25:00;;;;;;;7.10;6.30;;;19.20;99.90;;;;;;5091367;28;20177;-33
2023/07/09 04:27:28;;;;;;;9.20;5.70;;;19.20;99.90;;;;;;5074277;28;20203;-32
2023/07/09 04:29:54;;;;;;;7.80;5.45;;;19.30;99.90;;;;;;5073846;28;20234;-32
2023/07/09 04:32:21;;;;;;;7.38;6.00;;;19.30;99.90;;;;;;5074313;28;20184;-31
2023/07/09 04:34:47;;;;;;;7.80;5.82;;;19.40;99.90;;;;;;5091221;28;20223;-31
2023/07/09 04:37:13;;;;;;;9.55;5.97;;;19.40;99.90;;;;;;5073723;28;20188;-32
2023/07/09 04:39:40;;;;;;;7.00;5.65;;;19.40;99.90;;;;;;5073510;28;20219;-31
2023/07/09 04:42:10;;;;;;;6.45;5.43;;;19.40;99.90;;;;;;5077368;28;20189;-32
2023/07/09 04:44:36;;;;;;;8.10;5.55;;;19.40;99.90;;;;;;5082910;28;20188;-31
2023/07/09 04:47:02;;;;;;;8.80;5.85;;;19.40;99.90;;;;;;5090721;28;20190;-32
2023/07/09 04:49:27;;;;;;;7.95;5.68;;;19.40;99.90;;;;;;5073698;28;20226;-32
2023/07/09 04:51:56;;;;;;;7.18;5.85;;;19.40;99.90;;;;;;5073695;28;20195;-32
2023/07/09 04:54:22;;;;;;;8.27;5.97;;;19.50;99.90;;;;;;5073457;28;20192;-32
2023/07/09 04:56:48;;;;;;;8.07;5.80;;;19.50;99.90;;;;;;5073903;28;20235;-32
2023/07/09 04:59:14;;;;;;;7.57;5.50;;;19.50;99.90;;;;;;5073762;28;20204;-33
2023/07/09 05:01:40;;;;;;;7.97;5.82;;;19.50;99.90;;;;;;5090376;28;20456;-33
2023/07/09 05:04:06;;;;;;;6.18;5.57;;;19.50;99.90;;;;;;5088202;28;20233;-32
2023/07/09 05:06:33;;;;;;;6.63;5.45;;;19.60;99.90;;;;;;5067050;28;20327;-32
2023/07/09 05:08:59;;;;;;;7.13;5.70;;;19.60;99.90;;;;;;5073184;28;20216;-32
2023/07/09 05:11:24;;;;;;;9.73;5.70;;;19.70;99.90;;;;;;5071141;28;20188;-32
2023/07/09 05:13:51;;;;;;;7.68;6.03;;;19.70;99.90;;;;;;5086504;28;20212;-32
2023/07/09 05:16:17;;;;;;;9.55;6.05;;;19.70;99.90;;;;;;5073315;28;20176;-33
2023/07/09 05:18:44;;;;;;;8.38;5.60;;;19.80;99.90;;;;;;5090513;28;20250;-32
2023/07/09 05:21:10;;;;;;;7.55;5.97;;;19.80;99.90;;;;;;5073099;28;20233;-32
2023/07/09 05:23:36;;;;;;;7.43;5.75;;;19.80;99.90;;;;;;5090767;28;20303;-31
2023/07/09 05:26:03;;;;;;;7.40;6.25;;;19.90;99.90;;;;;;5075881;28;20185;-32
2023/07/09 05:28:29;;;;;;;7.38;5.95;;;20.00;99.90;;;;;;5091968;28;20224;-30
2023/07/09 05:30:55;;;;;;;10.32;6.60;;;20.10;99.90;;;;;;5073229;28;20199;-30
2023/07/09 05:33:22;;;;;;;7.07;6.00;;;20.20;99.90;;;;;;5070333;28;20190;-30
2023/07/09 05:35:48;;;;;;;7.75;6.18;;;20.40;99.90;;;;;;5085864;28;20181;-30
2023/07/09 05:38:14;;;;;;;6.95;5.75;;;20.50;99.90;;;;;;5073636;28;20200;-29
2023/07/09 05:40:41;;;;;;;7.00;5.97;;;20.60;99.90;;;;;;5088378;28;20184;-30
2023/07/09 05:43:08;;;;;;;8.25;6.18;;;20.80;99.90;;;;;;5072137;28;20184;-29
2023/07/09 05:45:34;;;;;;;8.93;6.05;;;20.90;99.90;;;;;;5084284;28;20181;-32
2023/07/09 05:48:00;;;;;;;8.50;6.20;;;21.00;99.90;;;;;;5069733;28;20206;-33
2023/07/09 05:50:27;;;;;;;6.97;5.40;;;21.20;99.90;;;;;;5072870;28;20219;-31
2023/07/09 05:52:52;;;;;;;8.25;5.55;;;21.30;99.90;;;;;;5072584;28;20648;-28
2023/07/09 05:55:18;;;;;;;8.70;5.50;;;21.50;99.90;;;;;;5072945;28;20206;-30
2023/07/09 05:57:44;;;;;;;6.63;5.78;;;21.60;99.90;;;;;;5072774;28;20196;-30
2023/07/09 06:00:10;;;;;;;6.88;6.00;;;21.70;99.90;;;;;;5072823;28;20211;-31
2023/07/09 06:02:41;;;;;;;8.65;5.88;;;21.90;99.90;;;;;;5089653;28;20185;-30
2023/07/09 06:05:10;;;;;;;8.10;6.13;;;22.00;99.90;;;;;;5036436;28;20207;-29
2023/07/09 06:07:38;;;;;;;8.63;5.65;;;22.20;99.90;;;;;;5089369;28;20243;-30
2023/07/09 06:10:07;;;;;;;8.38;5.60;;;22.40;99.90;;;;;;5072387;28;20224;-30
2023/07/09 06:12:33;;;;;;;6.15;5.50;;;22.50;99.90;;;;;;5069458;28;20176;-31
2023/07/09 06:14:59;;;;;;;8.45;5.53;;;22.60;99.90;;;;;;5089227;28;20177;-29
2023/07/09 06:17:25;;;;;;;8.32;5.72;;;22.70;99.90;;;;;;5077210;28;20201;-30
2023/07/09 06:19:51;;;;;;;8.85;5.90;;;22.80;99.90;;;;;;5084514;28;20227;-30
2023/07/09 06:22:17;;;;;;;7.15;5.55;;;22.80;99.90;;;;;;5070800;28;20280;-31
2023/07/09 06:24:42;;;;;;;8.50;5.78;;;23.00;99.90;;;;;;5072886;28;20188;-30
2023/07/09 06:27:09;;;;;;;9.13;5.82;;;23.10;99.90;;;;;;5071868;28;20177;-30
2023/07/09 06:29:35;;;;;;;8.18;5.43;;;23.20;99.90;;;;;;5083847;28;20295;-31
2023/07/09 06:32:01;;;;;;;6.15;5.55;;;23.40;99.90;;;;;;5072523;28;20260;-30
2023/07/09 06:34:27;;;;;;;8.55;5.30;;;23.60;99.90;;;;;;5064701;28;20720;-30
2023/07/09 06:36:53;;;;;;;7.18;5.50;;;23.80;99.90;;;;;;5072155;28;20255;-31
2023/07/09 06:39:22;;;;;;;7.25;5.88;;;23.90;99.90;;;;;;5071875;28;20209;-31
2023/07/09 06:41:48;;;;;;;7.80;5.75;;;24.00;99.90;;;;;;5068757;28;20216;-30
2023/07/09 06:44:33;;;;;;;6.15;5.55;;;24.10;99.90;;;;;;5088596;28;20181;-31
2023/07/09 06:47:00;;;;;;;7.47;5.13;;;24.30;99.90;;;;;;5071509;28;20176;-31
2023/07/09 06:49:26;;;;;;;7.18;5.05;;;24.50;99.90;;;;;;5089081;28;20228;-31
2023/07/09 06:51:52;;;;;;;6.18;5.18;;;24.60;99.90;;;;;;5070221;28;20211;-31
2023/07/09 06:54:17;;;;;;;7.72;5.60;;;24.70;99.90;;;;;;5089159;28;20184;-30
2023/07/09 06:56:43;;;;;;;6.90;5.63;;;24.90;99.90;;;;;;5088761;28;20181;-31
2023/07/09 06:59:10;;;;;;;7.53;5.18;;;25.00;99.90;;;;;;5070771;28;20287;-31
2023/07/09 07:01:35;;;;;;;8.77;5.75;;;25.10;99.90;;;;;;5071707;28;20181;-30
2023/07/09 07:04:02;;;;;;;6.20;5.50;;;25.10;99.90;;;;;;5088113;28;20677;-30
2023/07/09 07:06:28;;;;;;;6.68;5.15;;;25.30;99.90;;;;;;5069910;28;20258;-30
2023/07/09 07:08:54;;;;;;;6.22;5.00;;;25.40;99.90;;;;;;5068418;28;20208;-30
2023/07/09 07:11:21;;;;;;;6.85;4.85;;;25.60;99.90;;;;;;5087960;28;20234;-29
2023/07/09 07:13:51;;;;;;;7.68;5.65;;;25.70;99.90;;;;;;5089419;28;20189;-31
2023/07/09 07:16:17;;;;;;;9.35;5.45;;;25.90;99.90;;;;;;5087996;28;20188;-31
2023/07/09 07:18:42;;;;;;;7.00;5.57;;;26.00;99.90;;;;;;5074789;28;20222;-31
2023/07/09 07:21:08;;;;;;;5.57;5.00;;;26.00;99.90;;;;;;5088596;28;20313;-30
2023/07/09 07:23:34;;;;;;;6.55;4.88;;;26.10;99.90;;;;;;5074971;28;20176;-30
2023/07/09 07:26:00;;;;;;;7.40;5.75;;;26.20;99.90;;;;;;5073617;28;20195;-30
2023/07/09 07:28:26;;;;;;;5.32;4.82;;;26.30;99.90;;;;;;5074960;28;20200;-31
2023/07/09 07:31:02;;;;;;;5.75;5.03;;;26.50;99.90;;;;;;5092812;28;20207;-32
2023/07/09 07:33:28;;;;;;;6.80;5.22;;;26.80;99.90;;;;;;5075265;28;20180;-31
2023/07/09 07:35:54;;;;;;;6.68;5.00;;;27.00;99.90;;;;;;5091731;28;20173;-31
2023/07/09 07:38:20;;;;;;;8.38;5.18;;;27.20;99.90;;;;;;5091783;28;20208;-31
2023/07/09 07:40:46;;;;;;;7.18;4.80;;;27.30;99.90;;;;;;5091576;28;20185;-31
2023/07/09 07:43:12;;;;;;;6.38;4.90;;;27.40;99.90;;;;;;5074614;28;20267;-31
2023/07/09 07:45:42;;;;;;;6.40;4.97;;;27.40;99.90;;;;;;5091499;28;20314;-30
2023/07/09 07:48:08;;;;;;;5.72;5.18;;;27.50;99.90;;;;;;5092242;28;20201;-31
2023/07/09 07:50:34;;;;;;;6.25;5.60;;;27.70;99.90;;;;;;5091958;28;20200;-31
2023/07/09 07:53:00;;;;;;;6.40;5.43;;;27.80;99.90;;;;;;5075028;28;20172;-31
2023/07/09 07:55:26;;;;;;;6.97;4.85;;;27.90;99.90;;;;;;5091896;28;20181;-31
2023/07/09 07:57:52;;;;;;;6.57;5.50;;;28.10;99.90;;;;;;5074729;28;20299;-31
2023/07/09 08:00:18;;;;;;;5.68;5.13;;;28.10;99.90;;;;;;5074476;28;20199;-33
2023/07/09 08:02:46;;;;;;;7.05;5.20;;;28.10;99.90;;;;;;5091466;28;20176;-30
2023/07/09 08:05:11;;;;;;;6.50;5.30;;;28.20;99.90;;;;;;5074277;28;20238;-31
2023/07/09 08:07:37;;;;;;;7.57;5.32;;;28.20;99.90;;;;;;5091454;28;20242;-31
2023/07/09 08:10:03;;;;;;;5.82;5.22;;;28.30;99.90;;;;;;5090953;28;20203;-31
2023/07/09 08:12:29;;;;;;;5.88;4.85;;;28.40;99.90;;;;;;5070659;28;20173;-30
2023/07/09 08:14:55;;;;;;;5.80;4.90;;;28.60;99.90;;;;;;5091405;28;20180;-31
2023/07/09 08:17:21;;;;;;;6.38;4.75;;;28.80;99.90;;;;;;5074219;28;20212;-31
2023/07/09 08:19:49;;;;;;;7.50;5.05;;;28.90;99.90;;;;;;5074241;28;20212;-31
2023/07/09 08:22:15;;;;;;;6.00;5.05;;;29.00;99.90;;;;;;5073817;28;20200;-31
2023/07/09 08:24:42;;;;;;;6.68;4.85;;;29.10;99.90;;;;;;5074407;28;20184;-31
2023/07/09 08:27:13;;;;;;;7.57;5.15;;;29.30;99.90;;;;;;5074072;28;20184;-30
2023/07/09 08:29:41;;;;;;;7.55;4.75;;;29.40;99.90;;;;;;5074266;28;20193;-31
2023/07/09 08:32:08;;;;;;;5.35;4.70;;;29.50;99.90;;;;;;5091118;28;20203;-31
2023/07/09 08:34:38;;;;;;;9.45;4.90;;;29.80;99.90;;;;;;5083782;28;20213;-31
2023/07/09 08:37:06;;;;;;;4.95;4.45;;;29.90;99.90;;;;;;5082339;28;20176;-31
2023/07/09 08:39:32;;;;;;;5.05;4.25;;;30.00;99.90;;;;;;5073862;28;20223;-32
2023/07/09 08:42:08;;;;;;;6.32;4.15;;;30.20;99.90;;;;;;5071736;28;20219;-32
2023/07/09 08:44:46;;;;;;;4.63;4.03;;;30.40;99.90;;;;;;5071242;28;20192;-32
2023/07/09 08:47:29;;;;;;;7.68;4.60;;;30.60;99.90;;;;;;5069122;28;20185;-32
2023/07/09 08:50:06;;;;;;;6.63;4.57;;;30.70;99.90;;;;;;5088581;28;20212;-32
2023/07/09 08:52:42;;;;;;;5.32;4.28;;;30.70;99.90;;;;;;5090363;28;20310;-32
2023/07/09 08:55:19;;;;;;;5.78;4.55;;;30.70;99.90;;;;;;5090398;28;20172;-32
2023/07/09 08:57:55;;;;;;;5.93;4.32;;;30.90;99.90;;;;;;5069597;28;20347;-31
2023/07/09 09:00:33;;;;;;;5.50;3.80;;;31.00;99.90;;;;;;5080584;28;20192;-30
2023/07/09 09:03:09;;;;;;;5.72;3.83;;;31.40;99.90;;;;;;5069549;28;20226;-32
2023/07/09 09:05:39;;;;;;;6.90;4.00;;;31.60;99.90;;;;;;5055321;28;20271;-32
2023/07/09 09:08:27;;;;;;;6.38;4.53;;;31.70;99.90;;;;;;5072910;28;20207;-32
2023/07/09 09:11:06;;;;;;;5.78;4.10;;;31.90;99.90;;;;;;5067855;28;20238;-32
2023/07/09 09:13:33;;;;;;;7.20;4.10;;;32.20;99.90;;;;;;5073248;28;20665;-32
2023/07/09 09:16:09;;;;;;;8.25;4.43;;;32.30;99.90;;;;;;5071847;28;20176;-32
2023/07/09 09:18:44;;;;;;;5.90;3.75;;;32.30;99.90;;;;;;5072438;28;20196;-31
2023/07/09 09:21:15;;;;;;;5.50;4.00;;;32.30;99.90;;;;;;5082322;28;20179;-29
2023/07/09 09:23:49;;;;;;;5.53;3.65;;;32.40;99.00;;;;;;5087314;28;20184;-32
2023/07/09 09:26:31;;;;;;;5.68;3.25;;;32.40;98.80;;;;;;5069855;28;20176;-32
2023/07/09 09:28:59;;;;;;;4.68;3.50;;;32.60;99.90;;;;;;5085804;28;20243;-31
2023/07/09 09:31:28;;;;;;;6.60;3.80;;;32.60;97.90;;;;;;5086976;28;20189;-32
2023/07/09 09:33:55;;;;;;;4.00;3.60;;;32.90;98.00;;;;;;5078958;28;20175;-30
2023/07/09 09:36:28;;;;;;;4.18;3.33;;;33.10;97.50;;;;;;5055511;28;20200;-32
2023/07/09 09:39:04;;;;;;;5.03;3.50;;;33.20;96.80;;;;;;5086281;28;20192;-31
2023/07/09 09:41:38;;;;;;;3.30;3.00;;;33.40;96.50;;;;;;5069314;28;20259;-31
2023/07/09 09:44:05;;;;;;;5.05;3.85;;;33.60;95.60;;;;;;5070783;28;20180;-31
2023/07/09 09:46:32;;;;;;;6.22;3.75;;;33.60;95.40;;;;;;5068767;28;20180;-32
2023/07/09 09:49:11;;;;;;;4.97;3.55;;;33.70;95.70;;;;;;5083637;28;20204;-32
2023/07/09 09:51:41;;;;;;;4.85;4.13;;;33.60;94.70;;;;;;5066827;28;20270;-32
2023/07/09 09:54:22;;;;;;;3.92;3.45;;;33.60;94.90;;;;;;5064046;28;20199;-32
2023/07/09 09:56:50;;;;;;;4.95;3.90;;;33.60;95.10;;;;;;5084079;28;20181;-31
2023/07/09 09:59:30;;;;;;;4.55;3.35;;;33.90;94.60;;;;;;5069272;28;20215;-32
2023/07/09 10:01:59;;;;;;;6.22;3.45;;;34.00;95.10;;;;;;5086235;28;20187;-32
2023/07/09 10:04:25;;;;;;;3.72;3.40;;;34.20;94.40;;;;;;5060386;28;20238;-31
2023/07/09 10:06:54;;;;;;;5.63;3.75;;;34.30;93.90;;;;;;5087812;28;20208;-32
2023/07/09 10:09:45;;;;;;;6.25;4.30;;;34.40;94.30;;;;;;5087878;28;20213;-32
2023/07/09 10:12:45;;;;;;;5.07;3.60;;;34.50;93.80;;;;;;5081037;28;20173;-31
2023/07/09 10:15:36;;;;;;;4.80;3.85;;;34.50;92.90;;;;;;5081456;28;20176;-32
2023/07/09 10:18:32;;;;;;;4.47;3.70;;;34.40;93.60;;;;;;5086562;28;20204;-32
2023/07/09 10:21:13;;;;;;;5.50;3.95;;;34.60;93.90;;;;;;5087310;28;20195;-31
2023/07/09 10:23:52;;;;;;;5.07;4.13;;;34.50;93.40;;;;;;5060691;28;20184;-32
2023/07/09 10:26:26;;;;;;;4.10;3.50;;;34.60;93.70;;;;;;5087048;28;20192;-32
2023/07/09 10:29:01;;;;;;;4.00;3.60;;;34.70;93.20;;;;;;5086617;28;20187;-31
2023/07/09 10:31:45;;;;;;;5.18;3.65;;;34.90;93.00;;;;;;5086225;28;20196;-32
2023/07/09 10:34:33;;;;;;;8.25;3.78;;;35.10;92.90;;;;;;5066127;28;20184;-32
2023/07/09 10:37:16;;;;;;;3.72;3.40;;;35.30;92.10;;;;;;5083101;28;20192;-32
2023/07/09 10:39:52;;;;;;;5.00;3.55;;;35.30;91.50;;;;;;5085962;28;20241;-32
2023/07/09 10:42:34;;;;;;;4.68;4.18;;;35.30;91.50;;;;;;5092435;28;20266;-32
2023/07/09 10:45:31;;;;;;;6.95;4.30;;;35.40;92.40;;;;;;5066690;28;20184;-32
2023/07/09 10:48:06;;;;;;;4.18;3.72;;;35.70;91.60;;;;;;5084309;28;20301;-32
2023/07/09 10:50:40;;;;;;;4.35;3.90;;;35.80;91.90;;;;;;5083680;28;20200;-32
2023/07/09 10:53:28;;;;;;;5.03;3.67;;;36.00;91.40;;;;;;5087244;28;20296;-32
2023/07/09 10:56:00;;;;;;;5.35;3.55;;;36.10;90.60;;;;;;5088205;28;20211;-32
2023/07/09 10:58:49;;;;;;;4.35;3.95;;;36.20;91.00;;;;;;5069921;28;20193;-31
2023/07/09 11:01:19;;;;;;;4.60;3.78;;;36.30;90.50;;;;;;5088255;28;20238;-30
2023/07/09 11:03:48;;;;;;;6.13;3.83;;;36.40;90.30;;;;;;5087978;28;20173;-32
2023/07/09 11:06:20;;;;;;;4.45;4.03;;;36.40;90.30;;;;;;5085237;28;20226;-32
2023/07/09 11:08:48;;;;;;;6.25;3.90;;;36.30;88.60;;;;;;5074501;28;20234;-32
2023/07/09 11:11:24;;;;;;;4.63;3.70;;;36.00;88.10;;;;;;5086737;28;20177;-32
2023/07/09 11:14:00;;;;;;;4.75;3.65;;;35.80;88.30;;;;;;5088613;28;20238;-32
2023/07/09 11:16:32;;;;;;;4.35;3.70;;;35.70;89.90;;;;;;5091351;28;20184;-32
2023/07/09 11:19:01;;;;;;;5.13;3.75;;;35.70;88.40;;;;;;5087521;28;20208;-32
2023/07/09 11:21:27;;;;;;;6.18;3.90;;;35.90;88.10;;;;;;5071230;28;20180;-32
2023/07/09 11:23:56;;;;;;;6.05;4.00;;;36.00;89.30;;;;;;5087844;28;20180;-32
2023/07/09 11:26:28;;;;;;;5.72;3.85;;;35.80;87.70;;;;;;5087700;28;20303;-32
2023/07/09 11:29:07;;;;;;;6.38;3.80;;;35.80;87.20;;;;;;5088756;28;20215;-32
2023/07/09 11:31:38;;;;;;;5.43;4.13;;;35.90;88.70;;;;;;5088263;28;20177;-32
2023/07/09 11:34:07;;;;;;;4.75;3.80;;;36.10;85.90;;;;;;5090768;28;20191;-32
2023/07/09 11:36:34;;;;;;;6.70;4.18;;;36.40;84.00;;;;;;5088321;28;20180;-32
2023/07/09 11:39:01;;;;;;;4.82;3.80;;;36.50;83.20;;;;;;5088492;28;20200;-32
2023/07/09 11:41:36;;;;;;;7.00;3.75;;;36.70;84.20;;;;;;5088585;28;20187;-33
2023/07/09 11:44:21;;;;;;;6.07;3.42;;;36.50;79.90;;;;;;5087160;28;20184;-32
2023/07/09 11:47:22;;;;;;;5.78;4.32;;;36.70;79.90;;;;;;5090768;28;20631;-31
2023/07/09 11:49:54;;;;;;;6.50;4.22;;;36.60;82.00;;;;;;5073102;28;20207;-32
2023/07/09 11:52:34;;;;;;;8.45;4.07;;;36.60;80.80;;;;;;5087340;28;20180;-33
2023/07/09 11:55:22;;;;;;;6.10;3.97;;;36.50;81.60;;;;;;5070497;28;20176;-33
2023/07/09 11:57:59;;;;;;;4.82;3.72;;;36.40;79.80;;;;;;5071047;28;20251;-32
2023/07/09 12:00:28;;;;;;;7.53;3.63;;;36.40;79.30;;;;;;5090042;28;20190;-32
2023/07/09 12:02:55;;;;;;;5.85;3.75;;;36.50;80.70;;;;;;5088287;28;20188;-32
2023/07/09 12:05:29;;;;;;;4.28;3.55;;;36.40;80.50;;;;;;5092240;28;20191;-32
2023/07/09 12:07:57;;;;;;;7.78;3.65;;;36.40;78.90;;;;;;5081772;28;20763;-33
2023/07/09 12:10:27;;;;;;;5.15;3.42;;;36.50;78.90;;;;;;5087556;28;20202;-32
2023/07/09 12:12:58;;;;;;;5.30;3.53;;;36.70;78.10;;;;;;5091771;28;20196;-33
2023/07/09 12:15:29;;;;;;;5.40;3.53;;;36.90;77.70;;;;;;5092765;28;20222;-33
2023/07/09 12:18:02;;;;;;;5.57;4.10;;;37.10;79.10;;;;;;5076585;28;20247;-33
2023/07/09 12:20:34;;;;;;;7.20;3.88;;;37.30;78.70;;;;;;5090807;28;20200;-32
2023/07/09 12:23:29;;;;;;;6.50;3.95;;;37.40;80.50;;;;;;5087927;28;20181;-33
2023/07/09 12:25:59;;;;;;;6.30;4.00;;;37.50;76.70;;;;;;5087073;28;20204;-32
2023/07/09 12:28:29;;;;;;;4.35;3.72;;;37.50;77.10;;;;;;5068648;28;20287;-33
2023/07/09 12:30:55;;;;;;;4.53;3.95;;;37.60;78.80;;;;;;5070237;28;20674;-33
2023/07/09 12:33:26;;;;;;;5.32;3.78;;;37.70;77.90;;;;;;5086988;28;20169;-32
2023/07/09 12:36:00;;;;;;;6.65;4.38;;;37.90;78.00;;;;;;5086560;28;20179;-32
2023/07/09 12:38:29;;;;;;;5.53;3.47;;;38.20;77.40;;;;;;5087816;28;20202;-32
2023/07/09 12:40:56;;;;;;;5.18;3.72;;;38.30;76.20;;;;;;5086667;28;20265;-33
2023/07/09 12:43:31;;;;;;;3.65;3.17;;;38.20;75.20;;;;;;5103298;28;20205;-31
2023/07/09 12:46:00;;;;;;;5.82;3.63;;;38.20;76.20;;;;;;5090220;28;20180;-32
2023/07/09 12:48:28;;;;;;;5.43;3.60;;;38.30;74.80;;;;;;5090927;28;20290;-33
2023/07/09 12:50:57;;;;;;;7.57;3.92;;;38.40;73.70;;;;;;5088377;28;20249;-33
2023/07/09 12:53:29;;;;;;;4.80;3.55;;;38.70;72.00;;;;;;5089650;28;20187;-32
2023/07/09 12:55:58;;;;;;;4.47;3.53;;;38.40;73.10;;;;;;5087780;28;20184;-32
2023/07/09 12:58:37;;;;;;;6.78;3.65;;;38.40;70.20;;;;;;5080706;28;20230;-33